createdAt,value
2022-10-18T00:01:29.922Z,15.10
2022-10-18T00:03:57.020Z,16.33
2022-10-18T00:06:24.152Z,12.90
2022-10-18T00:08:51.255Z,14.75
2022-10-18T00:11:18.544Z,11.70
2022-10-18T00:13:45.618Z,12.73
2022-10-18T00:16:14.441Z,12.25
2022-10-18T00:18:41.627Z,12.40
2022-10-18T00:21:11.321Z,11.95
2022-10-18T00:23:38.396Z,14.05
2022-10-18T00:26:12.534Z,11.68
2022-10-18T00:28:39.895Z,14.23
2022-10-18T00:31:11.767Z,14.30
2022-10-18T00:33:38.922Z,14.57
2022-10-18T00:36:06.270Z,13.82
2022-10-18T00:38:33.531Z,13.95
2022-10-18T00:41:00.580Z,14.18
2022-10-18T00:43:27.719Z,15.13
2022-10-18T00:45:54.868Z,12.93
2022-10-18T00:48:22.056Z,14.43
2022-10-18T00:50:50.927Z,12.52
2022-10-18T00:53:19.687Z,14.05
2022-10-18T00:55:47.509Z,12.38
2022-10-18T00:58:16.098Z,12.02
2022-10-18T01:00:43.302Z,12.80
2022-10-18T01:03:10.505Z,15.73
2022-10-18T01:05:39.313Z,13.85
2022-10-18T01:08:28.799Z,15.30
2022-10-18T01:11:19.186Z,10.13
2022-10-18T01:13:52.426Z,10.35
2022-10-18T01:16:29.828Z,9.27
2022-10-18T01:19:15.316Z,8.38
2022-10-18T01:22:01.307Z,8.68
2022-10-18T01:24:37.554Z,9.10
2022-10-18T01:27:23.247Z,10.40
2022-10-18T01:30:11.432Z,9.75
2022-10-18T01:32:41.807Z,9.77
2022-10-18T01:35:12.775Z,8.95
2022-10-18T01:37:41.113Z,9.48
2022-10-18T01:40:09.277Z,9.80
2022-10-18T01:42:36.367Z,9.60
2022-10-18T01:45:04.319Z,8.60
2022-10-18T01:47:31.810Z,8.43
2022-10-18T01:50:04.481Z,9.32
2022-10-18T01:52:31.893Z,8.65
2022-10-18T01:55:00.006Z,7.72
2022-10-18T01:57:51.970Z,7.75
2022-10-18T02:00:31.608Z,6.72
2022-10-18T02:03:14.648Z,6.55
2022-10-18T02:05:52.442Z,7.10
2022-10-18T02:08:23.133Z,7.80
2022-10-18T02:10:56.831Z,6.97
2022-10-18T02:13:25.936Z,9.05
2022-10-18T02:15:57.187Z,7.07
2022-10-18T02:18:26.657Z,7.40
2022-10-18T02:20:54.045Z,8.90
2022-10-18T02:23:23.076Z,8.88
2022-10-18T02:25:50.739Z,8.00
2022-10-18T02:28:17.921Z,8.68
2022-10-18T02:30:48.619Z,9.45
2022-10-18T02:33:18.880Z,8.80
2022-10-18T02:35:47.719Z,9.85
2022-10-18T02:38:16.875Z,9.85
2022-10-18T02:40:43.994Z,9.98
2022-10-18T02:43:12.259Z,9.93
2022-10-18T02:45:39.365Z,11.77
2022-10-18T02:48:07.299Z,11.27
2022-10-18T02:50:34.402Z,10.18
2022-10-18T02:53:01.529Z,10.13
2022-10-18T02:58:00.569Z,9.27
2022-10-18T03:00:27.628Z,9.85
2022-10-18T03:02:54.888Z,9.75
2022-10-18T03:05:21.943Z,9.38
2022-10-18T03:07:49.046Z,9.38
2022-10-18T03:10:16.104Z,8.55
2022-10-18T03:12:43.147Z,9.75
2022-10-18T03:15:10.468Z,8.77
2022-10-18T03:17:37.543Z,8.68
2022-10-18T03:20:04.726Z,8.93
2022-10-18T03:22:31.775Z,9.15
2022-10-18T03:24:58.844Z,9.15
2022-10-18T03:27:25.935Z,8.45
2022-10-18T03:29:53.149Z,9.43
2022-10-18T03:32:20.399Z,9.32
2022-10-18T03:34:47.476Z,8.00
2022-10-18T03:37:14.616Z,8.85
2022-10-18T03:39:41.672Z,8.15
2022-10-18T03:42:08.750Z,8.45
2022-10-18T03:44:36.009Z,8.18
2022-10-18T03:47:03.285Z,8.43
2022-10-18T03:49:30.406Z,8.00
2022-10-18T03:51:57.521Z,7.32
2022-10-18T03:54:24.572Z,7.75
2022-10-18T03:56:51.644Z,8.50
2022-10-18T03:59:18.993Z,8.65
2022-10-18T04:01:46.090Z,9.02
2022-10-18T04:04:13.191Z,9.68
2022-10-18T04:06:40.711Z,10.32
2022-10-18T04:09:10.110Z,10.40
2022-10-18T04:11:37.462Z,10.10
2022-10-18T04:14:04.610Z,9.77
2022-10-18T04:16:31.754Z,10.07
2022-10-18T04:18:58.881Z,10.70
2022-10-18T04:21:25.960Z,10.38
2022-10-18T04:23:53.007Z,10.18
2022-10-18T04:26:20.097Z,10.50
2022-10-18T04:28:47.260Z,9.27
2022-10-18T04:31:14.390Z,8.52
2022-10-18T04:33:41.438Z,8.70
2022-10-18T04:36:08.896Z,9.50
2022-10-18T04:38:36.230Z,9.75
2022-10-18T04:41:03.393Z,9.40
2022-10-18T04:43:30.466Z,9.38
2022-10-18T04:45:57.547Z,11.02
2022-10-18T04:48:24.608Z,10.20
2022-10-18T04:50:51.817Z,8.50
2022-10-18T04:53:19.251Z,9.40
2022-10-18T04:55:47.160Z,12.18
2022-10-18T04:58:14.283Z,10.45
2022-10-18T05:00:41.927Z,10.30
2022-10-18T05:03:09.266Z,11.20
2022-10-18T05:05:49.877Z,9.48
2022-10-18T05:08:24.375Z,10.52
2022-10-18T05:10:51.427Z,10.27
2022-10-18T05:13:18.529Z,10.48
2022-10-18T05:15:47.464Z,10.75
2022-10-18T05:18:14.595Z,10.82
2022-10-18T05:20:41.736Z,13.43
2022-10-18T05:23:12.006Z,11.13
2022-10-18T05:28:11.052Z,10.70
2022-10-18T05:30:42.988Z,9.65
2022-10-18T05:33:10.289Z,10.15
2022-10-18T05:35:37.692Z,9.00
2022-10-18T05:38:06.080Z,9.85
2022-10-18T05:40:33.793Z,9.73
2022-10-18T05:43:01.002Z,10.10
2022-10-18T05:45:30.875Z,8.23
2022-10-18T05:47:57.970Z,10.00
2022-10-18T05:50:25.079Z,8.57
2022-10-18T05:52:52.279Z,10.50
2022-10-18T05:55:19.397Z,9.20
2022-10-18T05:57:50.134Z,9.98
2022-10-18T06:00:17.612Z,9.27
2022-10-18T06:02:44.771Z,8.02
2022-10-18T06:05:11.863Z,8.55
2022-10-18T06:07:38.899Z,8.30
2022-10-18T06:10:06.224Z,8.48
2022-10-18T06:12:33.429Z,9.50
2022-10-18T06:15:00.494Z,8.15
2022-10-18T06:17:30.290Z,7.97
2022-10-18T06:19:59.627Z,10.48
2022-10-18T06:22:26.775Z,8.50
2022-10-18T06:24:57.138Z,8.77
2022-10-18T06:27:24.438Z,8.88
2022-10-18T06:29:51.491Z,9.20
2022-10-18T06:32:19.976Z,8.57
2022-10-18T06:34:47.059Z,9.10
2022-10-18T06:37:14.144Z,9.45
2022-10-18T06:39:41.212Z,8.93
2022-10-18T06:42:08.430Z,8.15
2022-10-18T06:44:35.125Z,8.73
2022-10-18T06:47:02.453Z,8.63
2022-10-18T06:49:29.544Z,7.70
2022-10-18T06:51:56.696Z,7.32
2022-10-18T06:54:23.752Z,8.45
2022-10-18T06:56:51.150Z,7.75
2022-10-18T06:59:18.333Z,6.93
2022-10-18T07:01:45.488Z,7.60
2022-10-18T07:04:12.801Z,8.38
2022-10-18T07:06:39.871Z,7.22
2022-10-18T07:09:06.961Z,6.22
2022-10-18T07:11:40.071Z,6.78
2022-10-18T07:14:07.514Z,6.53
2022-10-18T07:16:36.119Z,7.13
2022-10-18T07:19:03.450Z,6.43
2022-10-18T07:21:31.757Z,6.78
2022-10-18T07:23:58.922Z,7.32
2022-10-18T07:26:27.546Z,8.48
2022-10-18T07:28:58.047Z,7.10
2022-10-18T07:31:25.999Z,6.40
2022-10-18T07:33:53.221Z,6.85
2022-10-18T07:36:21.217Z,6.32
2022-10-18T07:38:48.657Z,5.82
2022-10-18T07:41:16.190Z,6.40
2022-10-18T07:43:51.915Z,5.50
2022-10-18T07:46:20.010Z,5.57
2022-10-18T07:48:47.160Z,5.82
2022-10-18T07:51:14.409Z,5.93
2022-10-18T07:53:41.950Z,5.75
2022-10-18T07:56:15.970Z,5.30
2022-10-18T07:58:43.945Z,6.47
2022-10-18T08:01:11.577Z,5.72
2022-10-18T08:03:39.076Z,5.03
2022-10-18T08:06:09.666Z,5.43
2022-10-18T08:08:38.501Z,4.90
2022-10-18T08:11:10.920Z,5.43
2022-10-18T08:13:38.103Z,5.07
2022-10-18T08:16:08.030Z,4.47
2022-10-18T08:18:36.275Z,4.47
2022-10-18T08:21:05.436Z,4.30
2022-10-18T08:23:32.684Z,4.15
2022-10-18T08:26:04.418Z,4.47
2022-10-18T08:28:31.237Z,4.53
2022-10-18T08:30:59.321Z,4.10
2022-10-18T08:33:29.439Z,4.05
2022-10-18T08:36:01.093Z,4.13
2022-10-18T08:38:33.252Z,4.00
2022-10-18T08:41:26.221Z,3.72
2022-10-18T08:44:07.977Z,3.28
2022-10-18T08:49:05.701Z,3.10
2022-10-18T08:51:47.453Z,3.03
2022-10-18T08:56:59.949Z,2.78
2022-10-18T08:59:34.187Z,2.45
2022-10-18T09:02:12.420Z,2.78
2022-10-18T09:04:54.585Z,2.60
2022-10-18T09:07:40.320Z,2.53
2022-10-18T09:10:17.748Z,2.30
2022-10-18T09:13:19.301Z,2.53
2022-10-18T09:15:52.470Z,2.20
2022-10-18T09:18:50.277Z,2.40
2022-10-18T09:21:22.846Z,2.00
2022-10-18T09:24:07.657Z,1.60
2022-10-18T09:26:45.402Z,2.60
2022-10-18T09:29:38.062Z,1.70
2022-10-18T09:32:27.980Z,1.42
2022-10-18T09:35:12.042Z,2.70
2022-10-18T09:37:40.215Z,1.80
2022-10-18T09:40:37.885Z,1.70
2022-10-18T09:43:16.029Z,2.10
2022-10-18T09:45:48.053Z,1.77
2022-10-18T09:48:42.688Z,1.85
2022-10-18T09:51:23.671Z,1.42
2022-10-18T09:54:07.124Z,1.95
2022-10-18T09:56:41.958Z,1.70
2022-10-18T09:59:40.270Z,2.00
2022-10-18T10:02:12.946Z,1.40
2022-10-18T10:04:39.632Z,1.92
2022-10-18T10:07:11.916Z,1.52
2022-10-18T10:09:56.112Z,1.77
2022-10-18T10:12:32.156Z,1.70
2022-10-18T10:15:28.239Z,1.83
2022-10-18T10:18:05.861Z,1.70
2022-10-18T10:20:48.683Z,1.65
2022-10-18T10:23:23.482Z,1.30
2022-10-18T10:25:55.952Z,1.50
2022-10-18T10:28:28.053Z,1.73
2022-10-18T10:30:56.271Z,1.50
2022-10-18T10:33:31.325Z,1.25
2022-10-18T10:35:59.412Z,1.67
2022-10-18T10:38:30.899Z,1.40
2022-10-18T10:40:58.787Z,1.45
2022-10-18T10:43:39.278Z,1.58
2022-10-18T10:46:18.994Z,1.60
2022-10-18T10:48:46.379Z,1.42
2022-10-18T10:51:14.342Z,1.95
2022-10-18T10:54:02.416Z,1.40
2022-10-18T10:56:33.182Z,1.60
2022-10-18T10:59:14.682Z,1.88
2022-10-18T11:01:42.035Z,1.55
2022-10-18T11:04:28.913Z,1.50
2022-10-18T11:07:09.741Z,1.60
2022-10-18T11:09:51.755Z,1.23
2022-10-18T11:12:35.146Z,1.50
2022-10-18T11:15:13.950Z,1.75
2022-10-18T11:18:09.734Z,1.50
2022-10-18T11:20:45.221Z,1.42
2022-10-18T11:23:14.530Z,1.50
2022-10-18T11:25:58.571Z,1.48
2022-10-18T11:28:31.458Z,1.35
2022-10-18T11:31:12.708Z,1.58
2022-10-18T11:34:08.906Z,1.77
2022-10-18T11:37:29.196Z,1.80
2022-10-18T11:40:05.560Z,1.70
2022-10-18T11:42:55.647Z,1.92
2022-10-18T11:45:42.122Z,1.52
2022-10-18T11:48:18.005Z,1.83
2022-10-18T11:51:34.234Z,1.35
2022-10-18T11:54:31.820Z,1.30
2022-10-18T11:57:09.947Z,1.42
2022-10-18T11:59:37.780Z,1.30
2022-10-18T12:02:04.905Z,1.50
2022-10-18T12:04:58.312Z,1.40
2022-10-18T12:07:42.087Z,1.30
2022-10-18T12:10:19.474Z,1.40
2022-10-18T12:12:58.693Z,1.30
2022-10-18T12:15:29.021Z,1.42
2022-10-18T12:17:59.660Z,1.52
2022-10-18T12:20:42.067Z,1.15
2022-10-18T12:23:24.876Z,1.25
2022-10-18T12:25:55.476Z,1.55
2022-10-18T12:28:51.517Z,0.63
2022-10-18T12:31:28.312Z,1.02
2022-10-18T12:33:59.558Z,1.00
2022-10-18T12:36:47.391Z,0.98
2022-10-18T12:39:38.965Z,1.10
2022-10-18T12:42:28.709Z,1.08
2022-10-18T12:45:05.568Z,1.02
2022-10-18T12:47:33.311Z,1.15
2022-10-18T12:50:05.434Z,0.93
2022-10-18T12:52:37.010Z,1.33
2022-10-18T12:55:19.496Z,1.52
2022-10-18T12:57:52.239Z,1.27
2022-10-18T13:00:31.128Z,1.45
2022-10-18T13:03:21.022Z,1.40
2022-10-18T13:05:53.331Z,1.50
2022-10-18T13:08:30.446Z,1.38
2022-10-18T13:13:40.601Z,1.35
2022-10-18T13:16:25.104Z,1.00
2022-10-18T13:19:13.561Z,1.23
2022-10-18T13:22:11.032Z,1.55
2022-10-18T13:24:46.549Z,1.45
2022-10-18T13:27:31.348Z,1.45
2022-10-18T13:30:27.210Z,1.58
2022-10-18T13:33:20.337Z,1.10
2022-10-18T13:36:06.860Z,0.80
2022-10-18T13:38:41.232Z,0.88
2022-10-18T13:43:56.617Z,0.80
2022-10-18T13:46:44.451Z,1.80
2022-10-18T13:49:16.930Z,1.10
2022-10-18T13:51:59.872Z,1.58
2022-10-18T13:54:57.875Z,1.40
2022-10-18T13:57:40.219Z,1.70
2022-10-18T14:00:38.264Z,1.25
2022-10-18T14:03:56.359Z,1.10
2022-10-18T14:06:25.427Z,1.15
2022-10-18T14:09:19.335Z,1.38
2022-10-18T14:12:01.679Z,1.30
2022-10-18T14:14:38.064Z,1.10
2022-10-18T14:17:33.918Z,0.88
2022-10-18T14:20:13.040Z,1.45
2022-10-18T14:23:01.373Z,1.35
2022-10-18T14:25:35.763Z,1.38
2022-10-18T14:28:31.451Z,1.60
2022-10-18T14:31:18.085Z,1.30
2022-10-18T14:36:31.224Z,1.58
2022-10-18T14:39:06.050Z,1.50
2022-10-18T14:41:35.454Z,1.88
2022-10-18T14:44:14.391Z,1.70
2022-10-18T14:46:53.840Z,1.98
2022-10-18T14:49:21.891Z,1.58
2022-10-18T14:51:55.932Z,1.40
2022-10-18T14:54:32.685Z,1.83
2022-10-18T14:57:00.852Z,1.63
2022-10-18T14:59:29.249Z,1.70
2022-10-18T15:02:02.090Z,1.85
2022-10-18T15:04:32.957Z,1.75
2022-10-18T15:07:02.996Z,1.77
2022-10-18T15:11:57.960Z,1.40
2022-10-18T15:14:27.602Z,1.80
2022-10-18T15:17:01.491Z,1.60
2022-10-18T15:19:30.393Z,1.50
2022-10-18T15:25:21.845Z,1.77
2022-10-18T15:27:51.986Z,1.38
2022-10-18T15:30:27.900Z,2.03
2022-10-18T15:33:00.254Z,1.30
2022-10-18T15:35:33.100Z,1.67
2022-10-18T15:38:04.435Z,1.67
2022-10-18T15:40:36.171Z,2.00
2022-10-18T15:43:06.699Z,2.15
2022-10-18T15:45:36.822Z,1.98
2022-10-18T15:48:06.520Z,1.75
2022-10-18T15:50:42.611Z,1.35
2022-10-18T15:53:22.703Z,1.90
2022-10-18T15:55:50.437Z,1.48
2022-10-18T15:58:23.484Z,1.60
2022-10-18T16:00:51.298Z,2.03
2022-10-18T16:03:20.212Z,1.88
2022-10-18T16:05:47.441Z,1.70
2022-10-18T16:08:19.454Z,2.17
2022-10-18T16:10:46.494Z,1.92
2022-10-18T16:13:13.595Z,1.67
2022-10-18T16:15:40.907Z,1.60
2022-10-18T16:18:08.067Z,1.80
2022-10-18T16:20:35.291Z,2.28
2022-10-18T16:23:02.407Z,1.50
2022-10-18T16:25:29.554Z,2.20
2022-10-18T16:27:56.690Z,1.90
2022-10-18T16:30:26.819Z,1.90
2022-10-18T16:32:54.156Z,2.00
2022-10-18T16:35:21.388Z,1.77
2022-10-18T16:37:48.627Z,1.98
2022-10-18T16:40:23.220Z,2.30
2022-10-18T16:42:50.467Z,2.40
2022-10-18T16:45:18.021Z,1.95
2022-10-18T16:47:45.521Z,2.10
2022-10-18T16:50:17.737Z,3.10
2022-10-18T16:52:45.167Z,3.10
2022-10-18T16:55:21.173Z,3.30
2022-10-18T16:57:49.422Z,2.95
2022-10-18T17:00:18.983Z,4.18
2022-10-18T17:02:46.184Z,4.10
2022-10-18T17:05:13.331Z,4.53
2022-10-18T17:07:40.447Z,4.68
2022-10-18T17:10:07.824Z,4.95
2022-10-18T17:12:35.018Z,6.30
2022-10-18T17:15:02.284Z,5.20
2022-10-18T17:17:29.423Z,5.82
2022-10-18T17:19:56.661Z,7.05
2022-10-18T17:22:23.811Z,8.40
2022-10-18T17:24:50.953Z,12.32
2022-10-18T17:27:18.094Z,14.30
2022-10-18T17:29:45.252Z,17.45
2022-10-18T17:32:12.319Z,17.13
2022-10-18T17:37:06.779Z,16.23
2022-10-18T17:39:34.113Z,12.30
2022-10-18T17:42:01.258Z,13.60
2022-10-18T17:44:28.407Z,14.10
2022-10-18T17:46:55.732Z,11.65
2022-10-18T17:49:22.898Z,11.15
2022-10-18T17:51:49.954Z,10.20
2022-10-18T17:54:17.060Z,10.38
2022-10-18T17:56:45.112Z,9.82
2022-10-18T17:59:12.266Z,11.20
2022-10-18T18:01:41.217Z,10.07
2022-10-18T18:04:08.286Z,9.63
2022-10-18T18:06:36.754Z,9.88
2022-10-18T18:09:08.591Z,10.35
2022-10-18T18:11:36.522Z,9.85
2022-10-18T18:14:08.730Z,8.63
2022-10-18T18:16:37.246Z,11.38
2022-10-18T18:19:08.825Z,11.48
2022-10-18T18:21:37.200Z,12.18
2022-10-18T18:24:04.751Z,13.15
2022-10-18T18:26:32.951Z,11.70
2022-10-18T18:29:00.301Z,10.48
2022-10-18T18:31:30.734Z,11.23
2022-10-18T18:34:01.570Z,9.82
2022-10-18T18:36:29.265Z,8.70
2022-10-18T18:38:57.794Z,8.32
2022-10-18T18:41:25.868Z,8.40
2022-10-18T18:43:57.762Z,8.45
2022-10-18T18:46:25.496Z,8.82
2022-10-18T18:48:52.982Z,9.43
2022-10-18T18:51:21.357Z,9.00
2022-10-18T18:53:49.388Z,8.77
2022-10-18T18:56:17.769Z,8.50
2022-10-18T18:58:45.430Z,9.00
2022-10-18T19:01:14.967Z,9.40
2022-10-18T19:03:43.074Z,10.02
2022-10-18T19:06:15.907Z,11.07
2022-10-18T19:08:46.611Z,9.73
2022-10-18T19:11:14.911Z,9.50
2022-10-18T19:13:42.283Z,8.93
2022-10-18T19:16:18.493Z,7.57
2022-10-18T19:18:52.747Z,9.20
2022-10-18T19:21:20.102Z,10.60
2022-10-18T19:23:47.453Z,11.13
2022-10-18T19:26:18.551Z,10.77
2022-10-18T19:28:45.788Z,10.90
2022-10-18T19:31:12.941Z,11.00
2022-10-18T19:33:48.200Z,10.27
2022-10-18T19:38:50.063Z,9.15
2022-10-18T19:41:17.173Z,8.90
2022-10-18T19:43:44.353Z,8.63
2022-10-18T19:46:11.620Z,8.30
2022-10-18T19:48:38.702Z,8.10
2022-10-18T19:51:07.993Z,7.05
2022-10-18T19:53:36.884Z,7.30
2022-10-18T19:56:05.154Z,7.65
2022-10-18T19:58:32.547Z,8.57
2022-10-18T20:01:00.250Z,6.70
2022-10-18T20:03:30.422Z,7.35
2022-10-18T20:05:58.684Z,7.35
2022-10-18T20:08:26.280Z,6.53
2022-10-18T20:10:53.533Z,6.28
2022-10-18T20:13:20.767Z,6.97
2022-10-18T20:15:49.099Z,6.07
2022-10-18T20:18:16.768Z,6.07
2022-10-18T20:20:47.264Z,5.45
2022-10-18T20:23:15.787Z,5.57
2022-10-18T20:25:42.904Z,5.95
2022-10-18T20:28:09.963Z,5.85
2022-10-18T20:30:37.048Z,7.07
2022-10-18T20:33:04.855Z,7.43
2022-10-18T20:35:32.695Z,8.98
2022-10-18T20:37:59.718Z,7.97
2022-10-18T20:40:26.776Z,7.18
2022-10-18T20:42:53.883Z,6.63
2022-10-18T20:45:21.070Z,6.85
2022-10-18T20:47:48.203Z,5.85
2022-10-18T20:50:15.341Z,6.35
2022-10-18T20:52:43.653Z,6.85
2022-10-18T20:55:10.876Z,7.05
2022-10-18T20:57:38.275Z,7.63
2022-10-18T21:00:11.440Z,6.97
2022-10-18T21:02:38.535Z,6.63
2022-10-18T21:05:05.747Z,7.10
2022-10-18T21:07:33.027Z,5.80
2022-10-18T21:10:02.559Z,5.65
2022-10-18T21:12:30.060Z,5.72
2022-10-18T21:14:57.362Z,5.90
2022-10-18T21:17:24.490Z,5.43
2022-10-18T21:19:51.544Z,5.53
2022-10-18T21:22:18.617Z,5.95
2022-10-18T21:24:46.467Z,5.28
2022-10-18T21:27:13.697Z,5.00
2022-10-18T21:29:40.755Z,5.25
2022-10-18T21:32:07.899Z,5.57
2022-10-18T21:34:35.136Z,4.88
2022-10-18T21:37:02.219Z,6.43
2022-10-18T21:39:30.006Z,6.38
2022-10-18T21:41:57.110Z,6.00
2022-10-18T21:44:24.293Z,6.05
2022-10-18T21:46:51.923Z,7.30
2022-10-18T21:49:19.158Z,8.00
2022-10-18T21:51:46.306Z,7.93
2022-10-18T21:54:14.439Z,7.88
2022-10-18T21:56:41.765Z,8.25
2022-10-18T21:59:08.912Z,7.38
2022-10-18T22:01:37.327Z,7.47
2022-10-18T22:04:06.440Z,7.18
2022-10-18T22:09:08.543Z,6.20
2022-10-18T22:11:37.860Z,7.38
2022-10-18T22:14:04.955Z,6.82
2022-10-18T22:16:31.999Z,6.40
2022-10-18T22:19:00.263Z,6.68
2022-10-18T22:21:27.967Z,6.28
2022-10-18T22:23:58.520Z,6.63
2022-10-18T22:26:33.938Z,10.18
2022-10-18T22:29:02.562Z,8.15
2022-10-18T22:31:31.011Z,8.05
2022-10-18T22:34:03.084Z,7.13
2022-10-18T22:36:30.861Z,11.45
2022-10-18T22:38:57.982Z,12.70
2022-10-18T22:41:25.131Z,10.05
2022-10-18T22:43:52.628Z,11.68
2022-10-18T22:46:20.160Z,11.75
2022-10-18T22:48:47.748Z,14.20
2022-10-18T22:51:15.160Z,11.82
2022-10-18T22:53:42.372Z,9.05
2022-10-18T22:56:10.920Z,10.23
2022-10-18T22:58:38.087Z,8.32
2022-10-18T23:01:06.894Z,8.25
2022-10-18T23:03:34.171Z,7.40
2022-10-18T23:06:01.442Z,7.93
2022-10-18T23:08:28.902Z,9.52
2022-10-18T23:10:57.069Z,7.45
2022-10-18T23:13:24.904Z,8.07
2022-10-18T23:15:52.374Z,9.40
2022-10-18T23:18:19.504Z,8.50
2022-10-18T23:20:46.774Z,7.82
2022-10-18T23:23:14.445Z,8.27
2022-10-18T23:25:41.679Z,8.15
2022-10-18T23:28:08.776Z,8.20
2022-10-18T23:30:38.217Z,7.15
2022-10-18T23:33:05.275Z,7.25
2022-10-18T23:35:32.604Z,7.68
2022-10-18T23:37:59.838Z,7.85
2022-10-18T23:40:26.926Z,7.95
2022-10-18T23:42:54.063Z,7.22
2022-10-18T23:45:21.128Z,8.10
2022-10-18T23:47:48.213Z,7.40
2022-10-18T23:50:15.386Z,6.50
2022-10-18T23:52:42.455Z,6.78
2022-10-18T23:55:09.614Z,7.63
2022-10-18T23:57:36.776Z,8.02
